createdAt,value
2023-04-22T00:01:28.911Z,53.75
2023-04-22T00:03:56.703Z,53.43
2023-04-22T00:06:24.393Z,53.81
2023-04-22T00:08:51.635Z,53.93
2023-04-22T00:11:18.790Z,53.76
2023-04-22T00:13:46.333Z,53.66
2023-04-22T00:16:13.553Z,53.80
2023-04-22T00:18:41.654Z,53.49
2023-04-22T00:21:09.076Z,53.90
2023-04-22T00:23:36.860Z,53.68
2023-04-22T00:26:04.599Z,53.72
2023-04-22T00:28:32.948Z,53.93
2023-04-22T00:31:03.294Z,53.76
2023-04-22T00:33:31.857Z,54.13
2023-04-22T00:35:59.544Z,53.55
2023-04-22T00:38:27.555Z,53.65
2023-04-22T00:40:55.389Z,53.62
2023-04-22T00:43:22.839Z,53.82
2023-04-22T00:45:50.946Z,53.78
2023-04-22T00:48:18.623Z,54.04
2023-04-22T00:50:46.377Z,54.07
2023-04-22T00:53:14.120Z,53.77
2023-04-22T00:55:41.880Z,53.92
2023-04-22T00:58:10.527Z,53.67
2023-04-22T01:00:38.739Z,53.86
2023-04-22T01:03:07.493Z,54.01
2023-04-22T01:05:35.987Z,53.72
2023-04-22T01:08:03.821Z,53.50
2023-04-22T01:10:31.659Z,53.83
2023-04-22T01:12:59.692Z,54.20
2023-04-22T01:15:29.220Z,53.89
2023-04-22T01:17:56.974Z,54.01
2023-04-22T01:20:24.553Z,53.79
2023-04-22T01:22:55.456Z,54.00
2023-04-22T01:25:28.935Z,54.12
2023-04-22T01:27:57.375Z,54.24
2023-04-22T01:30:24.577Z,54.24
2023-04-22T01:32:52.475Z,54.00
2023-04-22T01:35:21.456Z,53.90
2023-04-22T01:37:49.008Z,53.92
2023-04-22T01:40:19.903Z,54.07
2023-04-22T01:42:47.667Z,54.45
2023-04-22T01:45:18.026Z,54.26
2023-04-22T01:47:45.705Z,54.29
2023-04-22T01:50:12.773Z,54.34
2023-04-22T01:52:39.975Z,54.22
2023-04-22T01:55:08.657Z,54.19
2023-04-22T01:57:37.121Z,53.95
2023-04-22T02:00:06.512Z,54.03
2023-04-22T02:02:39.773Z,54.33
2023-04-22T02:05:08.663Z,54.49
2023-04-22T02:07:37.083Z,54.31
2023-04-22T02:10:06.566Z,54.28
2023-04-22T02:12:34.081Z,54.40
2023-04-22T02:15:01.568Z,54.28
2023-04-22T02:17:28.814Z,54.35
2023-04-22T02:19:56.406Z,54.26
2023-04-22T02:22:24.246Z,54.53
2023-04-22T02:24:51.892Z,54.62
2023-04-22T02:27:19.326Z,54.11
2023-04-22T02:29:48.445Z,54.41
2023-04-22T02:32:17.747Z,54.14
2023-04-22T02:34:47.234Z,54.29
2023-04-22T02:37:14.872Z,54.68
2023-04-22T02:39:42.578Z,54.48
2023-04-22T02:42:10.401Z,54.68
2023-04-22T02:44:38.185Z,54.68
2023-04-22T02:47:07.579Z,54.24
2023-04-22T02:49:35.116Z,54.49
2023-04-22T02:52:02.438Z,54.74
2023-04-22T02:54:29.615Z,54.53
2023-04-22T02:56:58.026Z,54.87
2023-04-22T02:59:25.162Z,54.75
2023-04-22T03:01:52.820Z,54.59
2023-04-22T03:04:36.901Z,54.29
2023-04-22T03:07:04.566Z,54.60
2023-04-22T03:09:31.598Z,54.35
2023-04-22T03:11:59.309Z,54.57
2023-04-22T03:14:27.463Z,54.46
2023-04-22T03:16:55.694Z,54.38
2023-04-22T03:19:24.304Z,54.45
2023-04-22T03:21:51.419Z,54.60
2023-04-22T03:24:19.207Z,54.52
2023-04-22T03:26:50.868Z,54.77
2023-04-22T03:29:19.468Z,54.53
2023-04-22T03:31:47.170Z,54.56
2023-04-22T03:34:14.771Z,54.40
2023-04-22T03:36:43.884Z,54.58
2023-04-22T03:39:12.006Z,54.50
2023-04-22T03:41:40.511Z,54.30
2023-04-22T03:44:08.487Z,54.52
2023-04-22T03:46:37.238Z,54.88
2023-04-22T03:49:24.586Z,54.62
2023-04-22T03:51:51.801Z,54.94
2023-04-22T03:54:24.418Z,54.55
2023-04-22T03:56:53.069Z,54.81
2023-04-22T03:59:22.518Z,54.87
2023-04-22T04:01:52.620Z,54.67
2023-04-22T04:04:24.326Z,54.86
2023-04-22T04:06:56.929Z,54.48
2023-04-22T04:09:24.781Z,54.65
2023-04-22T04:11:53.226Z,54.67
2023-04-22T04:14:21.885Z,54.73
2023-04-22T04:16:52.199Z,54.75
2023-04-22T04:19:28.693Z,55.01
2023-04-22T04:21:57.054Z,54.96
2023-04-22T04:24:26.498Z,54.87
2023-04-22T04:27:00.707Z,54.90
2023-04-22T04:29:35.657Z,54.86
2023-04-22T04:32:14.701Z,54.71
2023-04-22T04:34:43.215Z,54.55
2023-04-22T04:37:12.769Z,54.79
2023-04-22T04:40:05.795Z,54.90
2023-04-22T04:42:49.368Z,54.81
2023-04-22T04:45:28.468Z,54.84
2023-04-22T04:48:07.416Z,55.17
2023-04-22T04:50:54.938Z,55.18
2023-04-22T04:53:47.177Z,55.17
2023-04-22T04:56:27.302Z,55.34
2023-04-22T04:59:03.274Z,55.17
2023-04-22T05:02:10.239Z,55.16
2023-04-22T05:04:43.248Z,55.20
2023-04-22T05:07:14.361Z,55.25
2023-04-22T05:09:58.598Z,55.13
2023-04-22T05:12:34.925Z,55.41
2023-04-22T05:15:24.356Z,55.57
2023-04-22T05:18:33.124Z,55.83
2023-04-22T05:21:46.284Z,55.68
2023-04-22T05:24:31.671Z,55.62
2023-04-22T05:27:31.603Z,55.47
2023-04-22T05:30:21.680Z,55.45
2023-04-22T05:33:22.167Z,55.75
2023-04-22T05:36:07.733Z,55.81
2023-04-22T05:41:58.074Z,55.74
2023-04-22T05:44:26.510Z,55.76
2023-04-22T05:47:00.012Z,55.43
2023-04-22T05:49:34.684Z,55.78
2023-04-22T05:52:30.515Z,55.68
2023-04-22T05:55:34.115Z,55.41
2023-04-22T05:58:04.205Z,55.62
2023-04-22T06:05:05.125Z,55.70
2023-04-22T06:09:05.736Z,55.71
2023-04-22T06:12:37.196Z,55.35
2023-04-22T06:15:18.740Z,55.50
2023-04-22T06:17:46.008Z,55.36
2023-04-22T06:20:13.855Z,55.28
2023-04-22T06:22:40.947Z,55.13
2023-04-22T06:25:09.913Z,55.37
2023-04-22T06:27:39.107Z,55.37
2023-04-22T06:30:08.197Z,55.51
2023-04-22T06:32:35.566Z,55.13
2023-04-22T06:35:02.936Z,55.15
2023-04-22T06:37:30.084Z,55.30
2023-04-22T06:39:57.417Z,54.76
2023-04-22T06:42:43.146Z,55.09
2023-04-22T06:45:28.770Z,55.07
2023-04-22T06:48:09.505Z,55.22
2023-04-22T06:50:57.426Z,55.22
2023-04-22T06:53:24.641Z,55.07
2023-04-22T06:55:53.240Z,54.96
2023-04-22T06:58:22.415Z,55.13
2023-04-22T07:00:50.078Z,55.05
2023-04-22T07:03:17.832Z,54.80
2023-04-22T07:05:50.234Z,54.80
2023-04-22T07:08:17.602Z,54.73
2023-04-22T07:10:45.008Z,55.07
2023-04-22T07:13:27.726Z,54.77
2023-04-22T07:15:54.907Z,55.05
2023-04-22T07:18:22.144Z,54.93
2023-04-22T07:20:49.226Z,55.25
2023-04-22T07:23:16.097Z,55.23
2023-04-22T07:25:43.032Z,55.32
2023-04-22T07:31:21.452Z,55.24
2023-04-22T07:33:48.825Z,55.46
2023-04-22T07:36:16.104Z,55.24
2023-04-22T07:38:43.173Z,55.13
2023-04-22T07:41:10.743Z,55.03
2023-04-22T07:43:38.335Z,55.27
2023-04-22T07:46:07.280Z,55.07
2023-04-22T07:48:34.731Z,55.15
2023-04-22T07:51:02.117Z,54.94
2023-04-22T07:53:29.080Z,55.00
2023-04-22T07:55:57.013Z,54.96
2023-04-22T07:58:23.940Z,55.26
2023-04-22T08:00:51.386Z,55.18
2023-04-22T08:03:18.548Z,55.13
2023-04-22T08:05:47.306Z,54.98
2023-04-22T08:08:14.476Z,54.93
2023-04-22T08:10:41.646Z,54.86
2023-04-22T08:13:08.602Z,54.89
2023-04-22T08:15:36.295Z,55.30
2023-04-22T08:18:04.037Z,54.83
2023-04-22T08:20:31.247Z,55.09
2023-04-22T08:23:00.715Z,55.21
2023-04-22T08:25:29.682Z,55.08
2023-04-22T08:27:56.982Z,54.72
2023-04-22T08:30:24.126Z,54.77
2023-04-22T08:32:53.357Z,54.70
2023-04-22T08:35:21.046Z,54.78
2023-04-22T08:37:48.094Z,54.81
2023-04-22T08:40:15.535Z,54.78
2023-04-22T08:42:44.346Z,54.78
2023-04-22T08:45:11.728Z,54.99
2023-04-22T08:47:40.719Z,54.90
2023-04-22T08:50:09.794Z,54.55
2023-04-22T08:52:37.848Z,54.94
2023-04-22T08:55:06.186Z,54.94
2023-04-22T08:57:33.855Z,54.83
2023-04-22T09:00:01.324Z,54.93
2023-04-22T09:02:32.272Z,54.74
2023-04-22T09:05:03.229Z,54.57
2023-04-22T09:07:32.594Z,54.60
2023-04-22T09:09:59.763Z,54.80
2023-04-22T09:12:27.550Z,54.64
2023-04-22T16:34:29.439Z,50.00
2023-04-22T16:36:56.584Z,50.14
2023-04-22T16:39:23.859Z,49.88
2023-04-22T16:41:51.190Z,49.21
2023-04-22T16:44:18.339Z,48.86
2023-04-22T16:46:45.614Z,48.54
2023-04-22T16:49:13.585Z,48.63
2023-04-22T16:51:40.989Z,47.85
2023-04-22T16:54:08.094Z,48.04
2023-04-22T16:56:35.372Z,47.62
2023-04-22T16:59:02.426Z,47.51
2023-04-22T17:01:30.259Z,47.57
2023-04-22T17:03:58.009Z,47.34
2023-04-22T17:06:28.047Z,47.18
2023-04-22T17:08:55.411Z,47.30
2023-04-22T17:11:24.087Z,47.37
2023-04-22T17:13:51.646Z,47.40
2023-04-22T17:16:19.866Z,47.19
2023-04-22T17:18:47.427Z,47.31
2023-04-22T17:21:15.122Z,47.25
2023-04-22T17:23:42.487Z,47.15
2023-04-22T17:26:09.483Z,47.11
2023-04-22T17:28:36.694Z,47.28
2023-04-22T17:31:04.280Z,47.28
2023-04-22T17:33:31.614Z,47.30
2023-04-22T17:35:58.705Z,47.25
2023-04-22T17:38:25.937Z,47.49
2023-04-22T17:40:53.073Z,47.10
2023-04-22T17:43:20.055Z,47.40
2023-04-22T17:45:47.420Z,47.36
2023-04-22T17:48:14.538Z,46.86
2023-04-22T17:50:41.556Z,47.12
2023-04-22T17:53:08.896Z,47.49
2023-04-22T17:55:35.996Z,47.06
2023-04-22T17:58:04.463Z,47.17
2023-04-22T18:00:36.511Z,46.81
2023-04-22T18:03:05.531Z,47.21
2023-04-22T18:05:32.755Z,47.22
2023-04-22T18:08:04.028Z,47.39
2023-04-22T18:10:31.226Z,47.31
2023-04-22T18:12:58.275Z,47.32
2023-04-22T18:15:25.565Z,47.59
2023-04-22T18:17:52.601Z,47.34
2023-04-22T18:20:20.101Z,47.30
2023-04-22T18:22:56.281Z,47.59
2023-04-22T18:25:24.207Z,47.49
2023-04-22T18:27:54.912Z,47.54
2023-04-22T18:30:23.861Z,47.49
2023-04-22T18:32:51.860Z,47.57
2023-04-22T18:35:20.020Z,47.79
2023-04-22T18:37:47.409Z,47.39
2023-04-22T18:40:14.462Z,47.59
2023-04-22T18:42:44.538Z,48.11
2023-04-22T18:45:12.311Z,47.61
2023-04-22T18:47:39.669Z,47.81
2023-04-22T18:50:07.508Z,47.92
2023-04-22T18:52:34.694Z,48.49
2023-04-22T18:55:02.018Z,48.39
2023-04-22T18:57:29.216Z,48.08
2023-04-22T18:59:56.389Z,47.97
2023-04-22T19:02:23.403Z,48.46
2023-04-22T19:04:51.574Z,47.94
2023-04-22T19:07:18.792Z,48.28
2023-04-22T19:09:46.634Z,48.46
2023-04-22T19:12:16.467Z,48.77
2023-04-22T19:14:43.888Z,48.54
2023-04-22T19:17:11.219Z,49.04
2023-04-22T19:19:38.233Z,48.44
2023-04-22T19:22:05.431Z,48.38
2023-04-22T19:24:35.145Z,48.41
2023-04-22T19:27:02.819Z,48.68
2023-04-22T19:29:30.240Z,48.39
2023-04-22T19:31:58.791Z,48.96
2023-04-22T19:34:26.913Z,48.69
2023-04-22T19:36:54.421Z,48.83
2023-04-22T19:39:21.949Z,48.81
2023-04-22T19:41:49.171Z,48.97
2023-04-22T19:44:16.320Z,48.84
2023-04-22T19:46:43.423Z,48.56
2023-04-22T19:49:10.722Z,48.59
2023-04-22T19:51:39.293Z,49.08
2023-04-22T19:54:08.312Z,48.92
2023-04-22T19:56:35.892Z,48.83
2023-04-22T19:59:04.283Z,48.81
2023-04-22T20:01:31.830Z,48.36
2023-04-22T20:03:59.621Z,48.49
2023-04-22T20:06:31.618Z,48.54
2023-04-22T20:08:59.766Z,48.83
2023-04-22T20:11:28.975Z,48.48
2023-04-22T20:13:56.870Z,48.77
2023-04-22T20:16:24.378Z,48.88
2023-04-22T20:18:52.169Z,48.92
2023-04-22T20:21:22.631Z,49.06
2023-04-22T20:23:52.237Z,49.39
2023-04-22T20:26:19.950Z,48.98
2023-04-22T20:28:51.697Z,49.59
2023-04-22T20:31:20.670Z,48.92
2023-04-22T20:33:48.360Z,49.39
2023-04-22T20:36:17.159Z,49.35
2023-04-22T20:38:48.729Z,49.82
2023-04-22T20:41:20.096Z,49.51
2023-04-22T20:43:47.310Z,49.25
2023-04-22T20:46:14.724Z,49.58
2023-04-22T20:48:42.606Z,49.33
2023-04-22T20:51:09.553Z,49.31
2023-04-22T20:53:37.558Z,49.44
2023-04-22T20:56:07.415Z,49.54
2023-04-22T20:58:34.418Z,49.45
2023-04-22T21:01:01.489Z,49.96
2023-04-22T21:03:29.518Z,49.80
2023-04-22T21:05:58.365Z,49.74
2023-04-22T21:08:26.191Z,49.73
2023-04-22T21:10:56.526Z,49.73
2023-04-22T21:13:24.186Z,49.83
2023-04-22T21:16:04.931Z,50.16
2023-04-22T21:18:33.835Z,50.30
2023-04-22T21:21:04.815Z,50.00
2023-04-22T21:23:32.352Z,49.71
2023-04-22T21:26:02.155Z,49.89
2023-04-22T21:28:30.271Z,49.70
2023-04-22T21:30:57.703Z,49.79
2023-04-22T21:33:25.383Z,49.78
2023-04-22T21:35:52.592Z,50.11
2023-04-22T21:38:19.772Z,49.80
2023-04-22T21:40:47.842Z,50.39
2023-04-22T21:43:14.885Z,50.37
2023-04-22T21:45:42.110Z,49.90
2023-04-22T21:48:09.181Z,49.93
2023-04-22T21:50:36.645Z,50.12
2023-04-22T21:53:03.993Z,49.81
2023-04-22T21:55:31.283Z,50.43
2023-04-22T21:57:58.441Z,50.32
2023-04-22T22:00:25.787Z,50.48
2023-04-22T22:02:53.134Z,49.98
2023-04-22T22:05:20.753Z,50.52
2023-04-22T22:07:48.788Z,50.67
2023-04-22T22:10:21.975Z,50.49
2023-04-22T22:12:49.869Z,50.59
2023-04-22T22:15:17.319Z,50.80
2023-04-22T22:17:46.087Z,50.75
2023-04-22T22:20:17.877Z,50.71
2023-04-22T22:22:45.152Z,50.20
2023-04-22T22:25:14.332Z,50.66
2023-04-22T22:27:46.893Z,50.55
2023-04-22T22:30:15.220Z,50.53
2023-04-22T22:32:42.399Z,50.60
2023-04-22T22:35:10.556Z,50.80
2023-04-22T22:37:37.582Z,50.34
2023-04-22T22:40:05.984Z,50.49
2023-04-22T22:42:33.003Z,50.59
2023-04-22T22:45:00.194Z,50.95
2023-04-22T22:47:27.758Z,50.29
2023-04-22T22:49:55.004Z,50.48
2023-04-22T22:52:22.592Z,50.91
2023-04-22T22:54:50.264Z,50.61
2023-04-22T22:57:17.332Z,50.68
2023-04-22T22:59:44.368Z,50.52
2023-04-22T23:02:13.704Z,51.03
2023-04-22T23:04:41.272Z,51.06
2023-04-22T23:07:08.621Z,50.82
2023-04-22T23:09:35.770Z,50.87
2023-04-22T23:12:03.164Z,50.69
2023-04-22T23:14:30.195Z,50.63
2023-04-22T23:16:57.279Z,51.22
2023-04-22T23:19:25.280Z,50.69
2023-04-22T23:21:54.485Z,50.73
2023-04-22T23:24:23.087Z,50.62
2023-04-22T23:26:51.364Z,50.59
2023-04-22T23:29:19.526Z,50.68
2023-04-22T23:31:49.525Z,50.75
2023-04-22T23:34:20.131Z,51.34
2023-04-22T23:36:48.032Z,50.82
2023-04-22T23:39:16.027Z,51.28
2023-04-22T23:41:43.885Z,50.92
2023-04-22T23:44:12.160Z,51.34
2023-04-22T23:46:40.408Z,50.68
2023-04-22T23:49:08.366Z,50.69
2023-04-22T23:51:36.373Z,51.26
2023-04-22T23:54:04.135Z,51.34
2023-04-22T23:56:32.228Z,51.09
2023-04-22T23:59:00.272Z,51.02
